createdAt,value
2022-10-30T00:00:38.827Z,8.32
2022-10-30T00:03:05.560Z,6.82
2022-10-30T00:05:32.153Z,6.85
2022-10-30T00:07:59.431Z,6.68
2022-10-30T00:10:26.553Z,8.25
2022-10-30T00:12:54.191Z,6.35
2022-10-30T00:15:20.794Z,7.35
2022-10-30T00:17:47.386Z,9.48
2022-10-30T00:20:13.989Z,10.38
2022-10-30T00:22:40.548Z,11.65
2022-10-30T00:25:07.570Z,8.60
2022-10-30T00:27:34.139Z,8.32
2022-10-30T00:30:00.670Z,8.73
2022-10-30T00:32:27.967Z,9.07
2022-10-30T00:34:54.506Z,10.65
2022-10-30T00:37:21.136Z,17.08
2022-10-30T00:39:47.734Z,8.38
2022-10-30T00:42:16.240Z,7.22
2022-10-30T00:44:45.631Z,7.47
2022-10-30T00:47:18.462Z,6.68
2022-10-30T00:53:05.497Z,7.18
2022-10-30T00:55:38.082Z,7.53
2022-10-30T00:58:09.435Z,7.50
2022-10-30T01:00:40.683Z,7.93
2022-10-30T01:03:07.636Z,9.45
2022-10-30T01:05:36.043Z,8.38
2022-10-30T01:08:02.808Z,7.82
2022-10-30T01:10:29.594Z,9.00
2022-10-30T01:12:59.408Z,9.40
2022-10-30T01:15:42.250Z,11.40
2022-10-30T01:18:29.354Z,9.98
2022-10-30T01:21:02.147Z,9.50
2022-10-30T01:23:34.775Z,10.27
2022-10-30T01:26:27.543Z,8.93
2022-10-30T01:29:19.832Z,8.18
2022-10-30T01:31:46.312Z,6.63
2022-10-30T01:34:20.601Z,6.60
2022-10-30T01:36:51.847Z,6.30
2022-10-30T01:39:22.690Z,7.13
2022-10-30T01:41:49.293Z,7.38
2022-10-30T01:44:21.937Z,6.25
2022-10-30T01:47:15.243Z,8.02
2022-10-30T01:49:54.081Z,10.15
2022-10-30T01:52:47.665Z,8.60
2022-10-30T01:55:39.816Z,7.15
2022-10-30T01:58:18.915Z,8.45
2022-10-30T02:00:50.504Z,16.40
2022-10-30T02:03:17.125Z,15.20
2022-10-30T02:05:48.074Z,9.23
2022-10-30T02:08:14.664Z,7.03
2022-10-30T02:10:43.651Z,6.32
2022-10-30T02:13:10.256Z,6.63
2022-10-30T02:15:38.051Z,6.97
2022-10-30T02:18:05.208Z,7.22
2022-10-30T02:20:32.253Z,7.43
2022-10-30T02:22:59.544Z,6.55
2022-10-30T02:25:26.773Z,6.00
2022-10-30T02:27:53.456Z,7.25
2022-10-30T02:30:20.109Z,7.75
2022-10-30T02:32:46.783Z,6.43
2022-10-30T02:35:13.584Z,6.75
2022-10-30T02:37:40.351Z,6.60
2022-10-30T02:40:10.646Z,6.97
2022-10-30T02:42:37.235Z,6.75
2022-10-30T02:45:04.136Z,5.50
2022-10-30T02:47:30.697Z,7.07
2022-10-30T02:49:57.305Z,7.25
2022-10-30T02:52:23.860Z,7.53
2022-10-30T02:54:50.568Z,6.60
2022-10-30T02:57:17.167Z,6.82
2022-10-30T02:59:43.721Z,4.57
2022-10-30T03:02:10.330Z,5.68
2022-10-30T03:04:37.266Z,6.35
2022-10-30T03:07:03.875Z,6.47
2022-10-30T03:09:30.445Z,7.50
2022-10-30T03:11:57.006Z,7.70
2022-10-30T03:14:23.727Z,7.85
2022-10-30T03:16:52.545Z,7.93
2022-10-30T03:19:19.706Z,7.65
2022-10-30T03:21:46.489Z,6.63
2022-10-30T03:24:13.354Z,9.27
2022-10-30T03:26:39.957Z,12.77
2022-10-30T03:29:06.556Z,13.02
2022-10-30T03:31:33.297Z,12.10
2022-10-30T03:33:59.932Z,10.13
2022-10-30T03:36:26.941Z,8.80
2022-10-30T03:38:53.603Z,8.57
2022-10-30T03:41:20.237Z,8.70
2022-10-30T03:43:46.809Z,8.45
2022-10-30T03:46:13.538Z,8.45
2022-10-30T03:48:40.128Z,8.75
2022-10-30T03:51:06.803Z,7.15
2022-10-30T03:53:33.598Z,10.07
2022-10-30T03:56:02.304Z,8.73
2022-10-30T03:58:29.540Z,9.00
2022-10-30T04:01:01.767Z,8.93
2022-10-30T04:03:28.541Z,8.13
2022-10-30T04:05:55.102Z,8.45
2022-10-30T04:08:21.741Z,9.00
2022-10-30T04:10:48.738Z,9.15
2022-10-30T04:13:17.596Z,7.88
2022-10-30T04:15:44.399Z,6.30
2022-10-30T04:18:12.305Z,5.70
2022-10-30T04:20:39.213Z,6.78
2022-10-30T04:23:08.029Z,5.57
2022-10-30T04:25:35.766Z,5.55
2022-10-30T04:28:02.695Z,5.50
2022-10-30T04:30:31.345Z,5.68
2022-10-30T04:32:58.286Z,5.93
2022-10-30T04:35:27.529Z,5.40
2022-10-30T04:37:59.161Z,5.53
2022-10-30T04:40:27.629Z,5.95
2022-10-30T04:42:54.492Z,5.75
2022-10-30T04:45:21.416Z,5.35
2022-10-30T04:47:47.969Z,8.48
2022-10-30T04:50:15.104Z,11.25
2022-10-30T04:52:41.686Z,9.70
2022-10-30T04:55:10.281Z,8.57
2022-10-30T04:57:37.321Z,6.97
2022-10-30T05:00:08.876Z,6.35
2022-10-30T05:02:37.037Z,6.10
2022-10-30T05:05:04.664Z,5.45
2022-10-30T05:07:31.461Z,9.65
2022-10-30T05:09:58.046Z,8.10
2022-10-30T05:12:24.712Z,50.40
2022-10-30T05:14:51.331Z,9.70
2022-10-30T05:17:17.949Z,19.20
2022-10-30T05:19:44.511Z,20.23
2022-10-30T05:22:11.084Z,16.85
2022-10-30T05:24:37.614Z,12.30
2022-10-30T05:27:04.390Z,13.88
2022-10-30T05:29:31.092Z,11.63
2022-10-30T05:31:57.622Z,14.35
2022-10-30T05:34:24.168Z,12.02
2022-10-30T05:36:50.703Z,12.95
2022-10-30T05:39:17.265Z,10.27
2022-10-30T05:41:43.847Z,8.82
2022-10-30T05:44:10.416Z,8.65
2022-10-30T05:46:37.037Z,6.22
2022-10-30T05:49:04.017Z,6.18
2022-10-30T05:51:33.188Z,8.30
2022-10-30T05:54:02.045Z,8.05
2022-10-30T05:56:28.611Z,9.57
2022-10-30T05:58:55.129Z,6.10
2022-10-30T06:01:21.818Z,7.20
2022-10-30T06:03:48.544Z,8.25
2022-10-30T06:06:15.122Z,8.32
2022-10-30T06:08:41.653Z,10.27
2022-10-30T06:11:08.301Z,9.38
2022-10-30T06:13:34.925Z,12.27
2022-10-30T06:16:01.564Z,9.77
2022-10-30T06:18:28.209Z,7.85
2022-10-30T06:20:56.471Z,6.85
2022-10-30T06:23:23.084Z,13.27
2022-10-30T06:25:49.639Z,8.15
2022-10-30T06:28:16.566Z,8.07
2022-10-30T06:30:43.164Z,7.55
2022-10-30T06:33:10.432Z,7.22
2022-10-30T06:35:37.117Z,7.55
2022-10-30T06:38:05.044Z,8.63
2022-10-30T06:40:31.827Z,7.50
2022-10-30T06:42:58.877Z,7.78
2022-10-30T06:45:26.116Z,7.60
2022-10-30T06:47:52.713Z,7.25
2022-10-30T06:50:21.952Z,6.68
2022-10-30T06:52:49.459Z,6.93
2022-10-30T06:55:16.717Z,6.32
2022-10-30T06:57:43.289Z,7.20
2022-10-30T07:00:10.551Z,7.97
2022-10-30T07:02:37.163Z,7.65
2022-10-30T07:05:04.369Z,6.63
2022-10-30T07:07:31.107Z,5.90
2022-10-30T07:09:57.704Z,4.63
2022-10-30T07:12:24.354Z,4.13
2022-10-30T07:14:50.910Z,3.97
2022-10-30T07:17:17.487Z,4.70
2022-10-30T07:19:44.105Z,4.45
2022-10-30T07:22:10.664Z,4.70
2022-10-30T07:24:37.219Z,4.47
2022-10-30T07:27:03.805Z,4.95
2022-10-30T07:29:30.373Z,3.53
2022-10-30T07:32:02.689Z,3.85
2022-10-30T07:34:29.999Z,3.97
2022-10-30T07:36:56.669Z,3.70
2022-10-30T07:39:23.255Z,3.72
2022-10-30T07:41:52.617Z,3.35
2022-10-30T07:44:19.261Z,3.67
2022-10-30T07:46:45.832Z,3.85
2022-10-30T07:49:12.393Z,4.38
2022-10-30T07:51:39.017Z,3.63
2022-10-30T07:54:05.648Z,3.38
2022-10-30T07:56:32.240Z,3.40
2022-10-30T07:58:58.836Z,3.47
2022-10-30T08:01:25.622Z,3.90
2022-10-30T08:03:52.417Z,3.20
2022-10-30T08:06:21.603Z,3.45
2022-10-30T08:08:51.275Z,3.50
2022-10-30T08:11:17.885Z,4.57
2022-10-30T08:13:44.516Z,4.60
2022-10-30T08:16:11.098Z,5.00
2022-10-30T08:18:38.771Z,4.65
2022-10-30T08:21:05.533Z,4.80
2022-10-30T08:23:32.140Z,4.97
2022-10-30T08:26:01.761Z,4.50
2022-10-30T08:28:31.811Z,4.03
2022-10-30T08:31:00.857Z,3.78
2022-10-30T08:33:27.442Z,3.75
2022-10-30T08:35:57.224Z,3.72
2022-10-30T08:38:24.872Z,3.78
2022-10-30T08:40:51.991Z,3.58
2022-10-30T08:43:19.207Z,3.72
2022-10-30T08:45:45.779Z,3.00
2022-10-30T08:48:15.083Z,3.72
2022-10-30T08:50:42.282Z,4.40
2022-10-30T08:53:12.631Z,3.50
2022-10-30T08:55:39.356Z,3.97
2022-10-30T08:58:05.927Z,3.85
2022-10-30T09:00:32.961Z,3.45
2022-10-30T09:02:59.877Z,3.65
2022-10-30T09:05:26.825Z,3.13
2022-10-30T09:07:59.027Z,3.03
2022-10-30T09:10:26.146Z,2.90
2022-10-30T09:12:57.258Z,3.20
2022-10-30T09:15:24.603Z,3.60
2022-10-30T09:18:11.397Z,2.90
2022-10-30T09:20:38.566Z,3.05
2022-10-30T09:23:05.151Z,3.15
2022-10-30T09:25:31.820Z,3.10
2022-10-30T09:27:58.398Z,3.13
2022-10-30T09:30:25.400Z,2.58
2022-10-30T09:33:00.349Z,2.80
2022-10-30T09:35:27.181Z,3.40
2022-10-30T09:37:54.141Z,3.20
2022-10-30T09:40:41.811Z,3.00
2022-10-30T09:43:30.121Z,3.65
2022-10-30T09:46:15.752Z,2.60
2022-10-30T09:48:42.262Z,2.78
2022-10-30T09:51:20.728Z,2.72
2022-10-30T09:54:02.473Z,2.20
2022-10-30T09:56:40.062Z,2.70
2022-10-30T09:59:27.242Z,3.17
2022-10-30T10:02:31.876Z,6.05
2022-10-30T10:05:03.906Z,3.05
2022-10-30T10:07:58.949Z,2.83
2022-10-30T10:10:43.485Z,2.80
2022-10-30T10:13:39.038Z,2.63
2022-10-30T10:16:14.026Z,2.38
2022-10-30T10:18:47.270Z,2.33
2022-10-30T10:21:28.764Z,3.25
2022-10-30T10:23:58.797Z,4.22
2022-10-30T10:26:54.773Z,4.47
2022-10-30T10:29:51.624Z,2.40
2022-10-30T10:32:49.424Z,2.88
2022-10-30T10:35:37.971Z,2.22
2022-10-30T10:38:19.741Z,2.20
2022-10-30T10:41:11.628Z,2.50
2022-10-30T10:43:44.529Z,2.42
2022-10-30T10:46:24.952Z,2.70
2022-10-30T10:49:02.116Z,2.28
2022-10-30T10:51:47.217Z,2.30
2022-10-30T10:54:19.534Z,2.80
2022-10-30T10:56:49.158Z,2.20
2022-10-30T10:59:32.592Z,2.60
2022-10-30T11:02:09.240Z,2.30
2022-10-30T11:04:43.694Z,2.47
2022-10-30T11:07:23.362Z,2.13
2022-10-30T11:09:53.665Z,2.60
2022-10-30T11:12:25.826Z,2.60
2022-10-30T11:14:52.426Z,2.47
2022-10-30T11:17:26.792Z,2.25
2022-10-30T11:20:03.013Z,2.65
2022-10-30T11:22:34.476Z,2.92
2022-10-30T11:25:25.310Z,2.50
2022-10-30T11:30:26.472Z,2.33
2022-10-30T11:32:55.407Z,2.55
2022-10-30T11:35:24.551Z,2.40
2022-10-30T11:38:11.232Z,2.10
2022-10-30T11:40:37.947Z,2.35
2022-10-30T11:43:05.414Z,2.45
2022-10-30T11:45:41.518Z,2.50
2022-10-30T11:48:27.178Z,2.20
2022-10-30T11:50:59.102Z,3.28
2022-10-30T11:53:38.682Z,2.63
2022-10-30T11:56:18.751Z,3.50
2022-10-30T11:58:49.748Z,2.85
2022-10-30T12:01:25.060Z,2.55
2022-10-30T12:03:53.416Z,2.15
2022-10-30T12:06:25.286Z,2.00
2022-10-30T12:09:00.726Z,2.40
2022-10-30T12:11:32.937Z,2.85
2022-10-30T12:13:59.883Z,2.50
2022-10-30T12:16:27.761Z,2.78
2022-10-30T12:19:05.470Z,2.40
2022-10-30T12:21:41.044Z,2.33
2022-10-30T12:24:19.798Z,2.15
2022-10-30T12:26:52.789Z,2.33
2022-10-30T12:29:36.432Z,2.67
2022-10-30T12:32:17.552Z,2.50
2022-10-30T12:34:50.317Z,2.45
2022-10-30T12:37:29.085Z,2.90
2022-10-30T12:39:55.623Z,2.45
2022-10-30T12:42:23.223Z,2.47
2022-10-30T12:45:08.805Z,2.78
2022-10-30T12:47:54.580Z,2.25
2022-10-30T12:50:40.460Z,2.35
2022-10-30T12:53:42.431Z,2.00
2022-10-30T12:56:21.965Z,2.13
2022-10-30T12:58:57.704Z,2.38
2022-10-30T13:01:33.374Z,2.22
2022-10-30T13:04:18.587Z,1.77
2022-10-30T13:07:24.148Z,2.05
2022-10-30T13:10:10.971Z,2.35
2022-10-30T13:12:41.016Z,2.10
2022-10-30T13:15:29.355Z,2.53
2022-10-30T13:17:59.311Z,2.15
2022-10-30T13:20:28.817Z,2.60
2022-10-30T13:23:09.966Z,2.50
2022-10-30T13:26:00.875Z,2.90
2022-10-30T13:28:36.575Z,2.65
2022-10-30T13:31:12.374Z,2.83
2022-10-30T13:33:54.365Z,2.28
2022-10-30T13:36:38.448Z,2.28
2022-10-30T13:39:23.678Z,1.80
2022-10-30T13:42:32.237Z,4.82
2022-10-30T13:45:26.437Z,6.55
2022-10-30T13:48:04.570Z,4.43
2022-10-30T13:50:33.847Z,2.88
2022-10-30T13:53:04.077Z,2.20
2022-10-30T13:55:34.455Z,2.20
2022-10-30T13:58:22.599Z,2.08
2022-10-30T14:01:01.582Z,2.30
2022-10-30T14:03:40.361Z,2.20
2022-10-30T14:06:15.712Z,2.42
2022-10-30T14:09:24.586Z,2.25
2022-10-30T14:11:54.404Z,2.85
2022-10-30T14:14:28.184Z,2.47
2022-10-30T14:17:17.494Z,2.25
2022-10-30T14:20:12.112Z,2.30
2022-10-30T14:22:41.155Z,2.67
2022-10-30T14:25:16.148Z,3.03
2022-10-30T14:27:42.811Z,3.15
2022-10-30T14:30:28.488Z,3.33
2022-10-30T14:32:55.903Z,2.42
2022-10-30T14:35:28.930Z,2.03
2022-10-30T14:37:57.089Z,2.95
2022-10-30T14:40:49.645Z,2.10
2022-10-30T14:43:31.297Z,2.63
2022-10-30T14:46:10.440Z,2.53
2022-10-30T14:49:09.850Z,3.28
2022-10-30T14:51:54.092Z,4.68
2022-10-30T14:54:39.730Z,4.57
2022-10-30T14:57:22.100Z,2.65
2022-10-30T14:59:48.734Z,4.35
2022-10-30T15:02:15.497Z,12.73
2022-10-30T15:05:20.161Z,10.38
2022-10-30T15:07:53.385Z,6.50
2022-10-30T15:10:32.850Z,8.13
2022-10-30T15:13:19.006Z,5.90
2022-10-30T15:15:46.563Z,9.30
2022-10-30T15:18:20.054Z,13.73
2022-10-30T15:23:27.182Z,9.15
2022-10-30T15:25:56.821Z,10.57
2022-10-30T15:28:28.863Z,12.07
2022-10-30T15:31:05.736Z,8.85
2022-10-30T15:33:37.719Z,4.75
2022-10-30T15:36:05.446Z,7.70
2022-10-30T15:38:32.258Z,7.35
2022-10-30T15:41:02.153Z,8.23
2022-10-30T15:43:34.012Z,7.10
2022-10-30T15:46:00.830Z,7.15
2022-10-30T15:48:31.457Z,6.20
2022-10-30T15:51:22.460Z,8.20
2022-10-30T15:53:54.485Z,20.75
2022-10-30T15:57:17.798Z,14.90
2022-10-30T15:59:35.233Z,18.35
2022-10-30T16:02:02.011Z,20.20
2022-10-30T16:04:36.280Z,19.25
2022-10-30T16:07:16.989Z,19.77
2022-10-30T16:09:55.997Z,15.98
2022-10-30T16:12:33.219Z,8.63
2022-10-30T16:15:07.735Z,14.27
2022-10-30T16:17:34.896Z,17.77
2022-10-30T16:20:05.651Z,20.13
2022-10-30T16:22:36.666Z,17.67
2022-10-30T16:25:07.459Z,13.55
2022-10-30T16:27:34.093Z,6.35
2022-10-30T16:30:01.723Z,6.65
2022-10-30T16:32:31.062Z,4.47
2022-10-30T16:35:00.395Z,4.03
2022-10-30T16:37:34.141Z,4.10
2022-10-30T16:40:10.401Z,5.65
2022-10-30T16:42:37.009Z,5.50
2022-10-30T16:45:12.519Z,6.90
2022-10-30T16:47:43.529Z,6.35
2022-10-30T16:50:15.692Z,6.57
2022-10-30T16:52:43.669Z,5.07
2022-10-30T16:55:20.053Z,5.93
2022-10-30T16:57:53.082Z,11.23
2022-10-30T17:00:27.205Z,7.82
2022-10-30T17:02:56.174Z,4.80
2022-10-30T17:05:39.547Z,7.95
2022-10-30T17:08:27.536Z,5.13
2022-10-30T17:11:05.720Z,5.63
2022-10-30T17:13:58.222Z,7.60
2022-10-30T17:16:37.292Z,16.27
2022-10-30T17:19:47.309Z,13.25
2022-10-30T17:22:18.213Z,10.05
2022-10-30T17:24:45.132Z,8.75
2022-10-30T17:27:38.175Z,8.80
2022-10-30T17:30:29.259Z,8.25
2022-10-30T17:32:55.892Z,8.82
2022-10-30T17:35:22.578Z,7.85
2022-10-30T17:37:49.142Z,8.18
2022-10-30T17:40:18.056Z,9.80
2022-10-30T17:42:44.693Z,12.20
2022-10-30T17:45:14.527Z,8.90
2022-10-30T17:47:41.206Z,7.82
2022-10-30T17:50:08.013Z,9.02
2022-10-30T17:52:34.876Z,8.30
2022-10-30T17:55:02.427Z,6.97
2022-10-30T17:57:29.372Z,9.70
2022-10-30T17:59:56.260Z,8.48
2022-10-30T18:02:23.456Z,9.63
2022-10-30T18:04:50.242Z,11.75
2022-10-30T18:07:17.557Z,16.42
2022-10-30T18:09:44.460Z,13.98
2022-10-30T18:12:15.480Z,9.95
2022-10-30T18:14:43.248Z,9.68
2022-10-30T18:17:10.735Z,8.93
2022-10-30T18:19:37.308Z,10.73
2022-10-30T18:22:04.131Z,9.85
2022-10-30T18:24:30.667Z,4.35
2022-10-30T18:26:58.524Z,3.45
2022-10-30T18:29:25.147Z,4.00
2022-10-30T18:31:51.820Z,4.40
2022-10-30T18:34:22.149Z,4.78
2022-10-30T18:36:49.700Z,7.13
2022-10-30T18:39:16.343Z,6.28
2022-10-30T18:41:45.019Z,5.30
2022-10-30T18:44:15.954Z,8.15
2022-10-30T18:46:43.191Z,7.80
2022-10-30T18:49:09.793Z,8.05
2022-10-30T18:51:36.437Z,5.80
2022-10-30T18:54:03.423Z,6.60
2022-10-30T18:56:32.577Z,7.45
2022-10-30T18:59:01.929Z,8.77
2022-10-30T19:01:31.015Z,7.47
2022-10-30T19:04:00.949Z,4.97
2022-10-30T19:06:28.019Z,4.28
2022-10-30T19:08:54.636Z,4.50
2022-10-30T19:11:24.668Z,4.57
2022-10-30T19:13:52.524Z,4.40
2022-10-30T19:16:20.431Z,9.25
2022-10-30T19:18:48.499Z,7.13
2022-10-30T19:21:20.874Z,6.55
2022-10-30T19:23:48.091Z,5.28
2022-10-30T19:26:16.196Z,5.25
2022-10-30T19:28:43.803Z,4.15
2022-10-30T19:31:14.629Z,37.50
2022-10-30T19:33:41.310Z,7.18
2022-10-30T19:36:27.087Z,7.68
2022-10-30T19:38:54.040Z,7.10
2022-10-30T19:41:20.724Z,7.00
2022-10-30T19:43:47.302Z,9.82
2022-10-30T19:46:15.210Z,7.97
2022-10-30T19:48:59.023Z,8.60
2022-10-30T19:51:27.487Z,8.70
2022-10-30T19:53:54.264Z,12.02
2022-10-30T19:56:21.586Z,14.65
2022-10-30T19:58:48.594Z,11.50
2022-10-30T20:01:15.645Z,10.38
2022-10-30T20:03:42.561Z,8.55
2022-10-30T20:06:13.205Z,10.15
2022-10-30T20:08:40.163Z,9.60
2022-10-30T20:11:06.727Z,7.32
2022-10-30T20:13:33.778Z,6.60
2022-10-30T20:16:02.773Z,6.00
2022-10-30T20:18:32.067Z,4.53
2022-10-30T20:21:01.507Z,3.75
2022-10-30T20:23:28.976Z,4.13
2022-10-30T20:26:02.608Z,4.10
2022-10-30T20:28:31.274Z,4.28
2022-10-30T20:30:57.941Z,3.50
2022-10-30T20:33:25.784Z,3.50
2022-10-30T20:35:54.689Z,3.85
2022-10-30T20:38:29.337Z,3.72
2022-10-30T20:40:57.108Z,4.70
2022-10-30T20:43:35.690Z,4.00
2022-10-30T20:46:04.625Z,5.25
2022-10-30T20:48:32.315Z,5.03
2022-10-30T20:51:00.740Z,3.08
2022-10-30T20:53:28.651Z,3.17
2022-10-30T20:55:55.624Z,5.00
2022-10-30T20:58:22.259Z,3.92
2022-10-30T21:00:49.452Z,3.85
2022-10-30T21:03:16.164Z,4.60
2022-10-30T21:05:45.890Z,4.10
2022-10-30T21:08:15.708Z,4.40
2022-10-30T21:10:42.785Z,4.35
2022-10-30T21:13:10.939Z,4.88
2022-10-30T21:15:42.666Z,4.30
2022-10-30T21:18:11.275Z,4.47
2022-10-30T21:20:38.587Z,4.68
2022-10-30T21:23:06.131Z,8.35
2022-10-30T21:25:32.992Z,8.27
2022-10-30T21:28:00.301Z,5.90
2022-10-30T21:30:27.546Z,2.83
2022-10-30T21:32:54.194Z,4.32
2022-10-30T21:35:21.035Z,4.35
2022-10-30T21:37:47.975Z,4.47
2022-10-30T21:40:14.773Z,4.55
2022-10-30T21:42:41.321Z,6.10
2022-10-30T21:45:08.731Z,5.53
2022-10-30T21:47:35.344Z,5.32
2022-10-30T21:50:06.052Z,6.25
2022-10-30T21:52:34.631Z,4.22
2022-10-30T21:55:01.185Z,4.30
2022-10-30T21:57:29.002Z,4.35
2022-10-30T21:59:57.607Z,3.47
2022-10-30T22:02:26.605Z,2.95
2022-10-30T22:04:53.288Z,3.08
2022-10-30T22:07:20.180Z,4.93
2022-10-30T22:09:46.820Z,4.72
2022-10-30T22:12:13.408Z,5.38
2022-10-30T22:14:40.077Z,3.60
2022-10-30T22:17:06.629Z,4.78
2022-10-30T22:19:33.225Z,4.00
2022-10-30T22:21:59.774Z,4.00
2022-10-30T22:24:26.317Z,3.97
2022-10-30T22:26:52.880Z,4.25
2022-10-30T22:29:19.453Z,4.80
2022-10-30T22:31:46.023Z,4.15
2022-10-30T22:34:12.592Z,3.67
2022-10-30T22:36:39.179Z,4.13
2022-10-30T22:39:12.561Z,4.30
2022-10-30T22:41:39.769Z,4.13
2022-10-30T22:44:10.988Z,3.85
2022-10-30T22:46:37.810Z,4.32
2022-10-30T22:49:05.222Z,4.32
2022-10-30T22:51:34.585Z,4.68
2022-10-30T22:54:03.103Z,4.60
2022-10-30T22:56:32.472Z,3.60
2022-10-30T22:59:02.476Z,3.10
2022-10-30T23:01:31.122Z,3.75
2022-10-30T23:04:00.009Z,3.65
2022-10-30T23:06:27.664Z,4.35
2022-10-30T23:08:55.629Z,4.10
2022-10-30T23:11:22.651Z,4.25
2022-10-30T23:13:49.675Z,4.85
2022-10-30T23:16:18.598Z,4.55
2022-10-30T23:18:46.179Z,4.22
2022-10-30T23:21:21.625Z,3.90
2022-10-30T23:23:48.909Z,4.18
2022-10-30T23:26:21.964Z,3.35
2022-10-30T23:28:50.083Z,2.10
2022-10-30T23:31:39.769Z,2.85
2022-10-30T23:34:11.063Z,3.60
2022-10-30T23:36:38.314Z,3.28
2022-10-30T23:39:08.201Z,3.95
2022-10-30T23:41:34.998Z,2.95
2022-10-30T23:44:07.193Z,3.03
2022-10-30T23:46:35.677Z,4.72
2022-10-30T23:49:03.373Z,4.40
2022-10-30T23:51:30.365Z,3.63
2022-10-30T23:53:57.300Z,3.78
2022-10-30T23:56:24.566Z,4.20
2022-10-30T23:58:52.122Z,3.28
